sensor_id;sensor_type;location;lat;lon;timestamp;P1;durP1;ratioP1;P2;durP2;ratioP2
39448;SDS011;25151;45.566;9.382;2023-06-24T00:02:47;3.78;;;2.65;;
39448;SDS011;25151;45.566;9.382;2023-06-24T00:05:51;3.33;;;2.47;;
39448;SDS011;25151;45.566;9.382;2023-06-24T00:08:57;4.10;;;1.92;;
39448;SDS011;25151;45.566;9.382;2023-06-24T00:12:03;6.00;;;2.85;;
39448;SDS011;25151;45.566;9.382;2023-06-24T00:15:06;4.07;;;2.40;;
39448;SDS011;25151;45.566;9.382;2023-06-24T00:18:09;3.15;;;2.13;;
39448;SDS011;25151;45.566;9.382;2023-06-24T00:21:11;4.82;;;2.50;;
39448;SDS011;25151;45.566;9.382;2023-06-24T00:24:13;4.28;;;2.38;;
39448;SDS011;25151;45.566;9.382;2023-06-24T00:27:17;7.60;;;3.33;;
39448;SDS011;25151;45.566;9.382;2023-06-24T00:30:19;3.35;;;2.20;;
39448;SDS011;25151;45.566;9.382;2023-06-24T00:33:21;3.40;;;2.30;;
39448;SDS011;25151;45.566;9.382;2023-06-24T00:36:23;5.93;;;2.60;;
39448;SDS011;25151;45.566;9.382;2023-06-24T00:39:26;5.95;;;3.00;;
39448;SDS011;25151;45.566;9.382;2023-06-24T00:42:30;5.28;;;2.15;;
39448;SDS011;25151;45.566;9.382;2023-06-24T00:45:32;4.70;;;2.50;;
39448;SDS011;25151;45.566;9.382;2023-06-24T00:48:34;5.43;;;2.67;;
39448;SDS011;25151;45.566;9.382;2023-06-24T00:51:37;5.32;;;2.75;;
39448;SDS011;25151;45.566;9.382;2023-06-24T00:54:40;2.80;;;2.00;;
39448;SDS011;25151;45.566;9.382;2023-06-24T00:57:44;3.10;;;2.10;;
39448;SDS011;25151;45.566;9.382;2023-06-24T01:00:50;3.80;;;2.47;;
39448;SDS011;25151;45.566;9.382;2023-06-24T01:03:57;3.70;;;1.90;;
39448;SDS011;25151;45.566;9.382;2023-06-24T01:07:00;2.95;;;2.45;;
39448;SDS011;25151;45.566;9.382;2023-06-24T01:10:03;2.97;;;1.92;;
39448;SDS011;25151;45.566;9.382;2023-06-24T01:13:09;3.97;;;2.53;;
39448;SDS011;25151;45.566;9.382;2023-06-24T01:16:13;5.47;;;2.50;;
39448;SDS011;25151;45.566;9.382;2023-06-24T01:19:48;3.85;;;2.83;;
39448;SDS011;25151;45.566;9.382;2023-06-24T01:23:11;3.30;;;2.53;;
39448;SDS011;25151;45.566;9.382;2023-06-24T01:26:47;2.83;;;2.20;;
39448;SDS011;25151;45.566;9.382;2023-06-24T01:30:24;5.13;;;2.38;;
39448;SDS011;25151;45.566;9.382;2023-06-24T01:33:45;3.05;;;2.00;;
39448;SDS011;25151;45.566;9.382;2023-06-24T01:36:53;4.22;;;2.72;;
39448;SDS011;25151;45.566;9.382;2023-06-24T01:40:04;3.20;;;2.05;;
39448;SDS011;25151;45.566;9.382;2023-06-24T01:43:11;3.72;;;2.35;;
39448;SDS011;25151;45.566;9.382;2023-06-24T01:46:15;3.05;;;2.28;;
39448;SDS011;25151;45.566;9.382;2023-06-24T01:49:23;5.00;;;2.15;;
39448;SDS011;25151;45.566;9.382;2023-06-24T01:52:29;3.78;;;2.20;;
39448;SDS011;25151;45.566;9.382;2023-06-24T01:55:33;3.80;;;2.15;;
39448;SDS011;25151;45.566;9.382;2023-06-24T01:58:37;4.57;;;2.60;;
39448;SDS011;25151;45.566;9.382;2023-06-24T02:01:40;4.60;;;2.72;;
39448;SDS011;25151;45.566;9.382;2023-06-24T02:04:44;3.00;;;2.22;;
39448;SDS011;25151;45.566;9.382;2023-06-24T02:07:47;4.07;;;2.00;;
39448;SDS011;25151;45.566;9.382;2023-06-24T02:10:51;4.35;;;2.20;;
39448;SDS011;25151;45.566;9.382;2023-06-24T02:13:55;6.03;;;2.53;;
39448;SDS011;25151;45.566;9.382;2023-06-24T02:17:01;2.80;;;1.92;;
39448;SDS011;25151;45.566;9.382;2023-06-24T02:20:08;4.43;;;2.60;;
39448;SDS011;25151;45.566;9.382;2023-06-24T02:23:11;5.50;;;2.72;;
39448;SDS011;25151;45.566;9.382;2023-06-24T02:26:15;4.28;;;2.17;;
39448;SDS011;25151;45.566;9.382;2023-06-24T02:29:18;2.88;;;2.03;;
39448;SDS011;25151;45.566;9.382;2023-06-24T02:32:21;3.05;;;2.08;;
39448;SDS011;25151;45.566;9.382;2023-06-24T02:35:25;3.03;;;2.22;;
39448;SDS011;25151;45.566;9.382;2023-06-24T02:38:27;3.50;;;2.47;;
39448;SDS011;25151;45.566;9.382;2023-06-24T02:41:29;4.32;;;2.30;;
39448;SDS011;25151;45.566;9.382;2023-06-24T02:44:31;3.38;;;2.25;;
39448;SDS011;25151;45.566;9.382;2023-06-24T02:47:34;3.80;;;2.45;;
39448;SDS011;25151;45.566;9.382;2023-06-24T02:50:39;2.70;;;2.00;;
39448;SDS011;25151;45.566;9.382;2023-06-24T02:53:43;4.32;;;2.50;;
39448;SDS011;25151;45.566;9.382;2023-06-24T02:56:47;3.10;;;2.28;;
39448;SDS011;25151;45.566;9.382;2023-06-24T02:59:50;3.17;;;2.10;;
39448;SDS011;25151;45.566;9.382;2023-06-24T03:02:53;3.38;;;2.30;;
39448;SDS011;25151;45.566;9.382;2023-06-24T03:05:57;3.80;;;2.55;;
39448;SDS011;25151;45.566;9.382;2023-06-24T03:09:02;3.58;;;2.30;;
39448;SDS011;25151;45.566;9.382;2023-06-24T03:12:05;3.70;;;2.45;;
39448;SDS011;25151;45.566;9.382;2023-06-24T03:15:08;5.15;;;2.50;;
39448;SDS011;25151;45.566;9.382;2023-06-24T03:18:11;3.28;;;2.33;;
39448;SDS011;25151;45.566;9.382;2023-06-24T03:21:15;3.13;;;2.03;;
39448;SDS011;25151;45.566;9.382;2023-06-24T03:24:17;3.85;;;2.40;;
39448;SDS011;25151;45.566;9.382;2023-06-24T03:27:18;2.83;;;2.10;;
39448;SDS011;25151;45.566;9.382;2023-06-24T03:30:20;3.88;;;2.33;;
39448;SDS011;25151;45.566;9.382;2023-06-24T03:33:22;3.90;;;2.25;;
39448;SDS011;25151;45.566;9.382;2023-06-24T03:36:26;3.53;;;2.60;;
39448;SDS011;25151;45.566;9.382;2023-06-24T03:39:27;5.07;;;2.28;;
39448;SDS011;25151;45.566;9.382;2023-06-24T03:42:29;2.97;;;2.35;;
39448;SDS011;25151;45.566;9.382;2023-06-24T03:45:31;4.15;;;2.55;;
39448;SDS011;25151;45.566;9.382;2023-06-24T03:48:34;5.40;;;2.30;;
39448;SDS011;25151;45.566;9.382;2023-06-24T03:51:38;9.00;;;2.97;;
39448;SDS011;25151;45.566;9.382;2023-06-24T03:54:40;3.22;;;2.17;;
39448;SDS011;25151;45.566;9.382;2023-06-24T03:57:42;3.33;;;2.20;;
39448;SDS011;25151;45.566;9.382;2023-06-24T04:00:47;3.80;;;2.53;;
39448;SDS011;25151;45.566;9.382;2023-06-24T04:03:50;4.00;;;2.20;;
39448;SDS011;25151;45.566;9.382;2023-06-24T04:06:54;3.38;;;2.25;;
39448;SDS011;25151;45.566;9.382;2023-06-24T04:09:57;2.65;;;2.15;;
39448;SDS011;25151;45.566;9.382;2023-06-24T04:12:59;3.28;;;2.30;;
39448;SDS011;25151;45.566;9.382;2023-06-24T04:16:02;4.00;;;2.88;;
39448;SDS011;25151;45.566;9.382;2023-06-24T04:19:04;3.03;;;2.10;;
39448;SDS011;25151;45.566;9.382;2023-06-24T04:22:08;3.55;;;2.20;;
39448;SDS011;25151;45.566;9.382;2023-06-24T04:25:10;2.70;;;2.20;;
39448;SDS011;25151;45.566;9.382;2023-06-24T04:28:12;3.47;;;1.90;;
39448;SDS011;25151;45.566;9.382;2023-06-24T04:31:14;4.10;;;2.72;;
39448;SDS011;25151;45.566;9.382;2023-06-24T04:34:17;9.27;;;3.38;;
39448;SDS011;25151;45.566;9.382;2023-06-24T04:37:21;5.05;;;3.40;;
39448;SDS011;25151;45.566;9.382;2023-06-24T04:40:24;5.38;;;3.53;;
39448;SDS011;25151;45.566;9.382;2023-06-24T04:43:28;5.40;;;3.35;;
39448;SDS011;25151;45.566;9.382;2023-06-24T04:46:32;9.52;;;3.88;;
39448;SDS011;25151;45.566;9.382;2023-06-24T04:49:36;4.82;;;3.20;;
39448;SDS011;25151;45.566;9.382;2023-06-24T04:52:42;4.88;;;3.25;;
39448;SDS011;25151;45.566;9.382;2023-06-24T04:55:45;5.57;;;3.40;;
39448;SDS011;25151;45.566;9.382;2023-06-24T04:58:49;5.00;;;3.72;;
39448;SDS011;25151;45.566;9.382;2023-06-24T05:01:53;4.57;;;3.38;;
39448;SDS011;25151;45.566;9.382;2023-06-24T05:04:59;5.65;;;3.90;;
39448;SDS011;25151;45.566;9.382;2023-06-24T05:08:05;7.28;;;3.65;;
39448;SDS011;25151;45.566;9.382;2023-06-24T05:11:09;8.20;;;4.15;;
39448;SDS011;25151;45.566;9.382;2023-06-24T05:14:14;10.60;;;4.28;;
39448;SDS011;25151;45.566;9.382;2023-06-24T05:17:18;7.85;;;4.07;;
39448;SDS011;25151;45.566;9.382;2023-06-24T05:20:22;8.27;;;3.95;;
39448;SDS011;25151;45.566;9.382;2023-06-24T05:23:28;5.05;;;3.85;;
39448;SDS011;25151;45.566;9.382;2023-06-24T05:26:32;7.47;;;3.40;;
39448;SDS011;25151;45.566;9.382;2023-06-24T05:29:37;9.32;;;3.35;;
39448;SDS011;25151;45.566;9.382;2023-06-24T05:32:42;6.65;;;3.67;;
39448;SDS011;25151;45.566;9.382;2023-06-24T05:35:46;6.07;;;4.10;;
39448;SDS011;25151;45.566;9.382;2023-06-24T05:38:53;7.43;;;3.53;;
39448;SDS011;25151;45.566;9.382;2023-06-24T05:41:57;5.85;;;3.00;;
39448;SDS011;25151;45.566;9.382;2023-06-24T05:45:01;7.13;;;3.60;;
39448;SDS011;25151;45.566;9.382;2023-06-24T05:48:05;6.45;;;3.55;;
39448;SDS011;25151;45.566;9.382;2023-06-24T05:51:12;6.15;;;4.05;;
39448;SDS011;25151;45.566;9.382;2023-06-24T05:54:18;4.85;;;3.88;;
39448;SDS011;25151;45.566;9.382;2023-06-24T05:57:21;5.93;;;3.70;;
39448;SDS011;25151;45.566;9.382;2023-06-24T06:00:25;5.40;;;3.75;;
39448;SDS011;25151;45.566;9.382;2023-06-24T06:03:30;4.57;;;3.83;;
39448;SDS011;25151;45.566;9.382;2023-06-24T06:06:35;6.10;;;3.92;;
39448;SDS011;25151;45.566;9.382;2023-06-24T06:09:41;4.60;;;3.65;;
39448;SDS011;25151;45.566;9.382;2023-06-24T06:12:44;5.10;;;3.67;;
39448;SDS011;25151;45.566;9.382;2023-06-24T06:15:48;6.40;;;3.70;;
39448;SDS011;25151;45.566;9.382;2023-06-24T06:18:52;5.97;;;3.45;;
39448;SDS011;25151;45.566;9.382;2023-06-24T06:21:57;9.85;;;4.00;;
39448;SDS011;25151;45.566;9.382;2023-06-24T06:25:08;6.32;;;3.97;;
39448;SDS011;25151;45.566;9.382;2023-06-24T06:28:12;5.63;;;3.60;;
39448;SDS011;25151;45.566;9.382;2023-06-24T06:31:16;7.53;;;4.15;;
39448;SDS011;25151;45.566;9.382;2023-06-24T06:34:21;4.95;;;3.50;;
39448;SDS011;25151;45.566;9.382;2023-06-24T06:37:25;6.32;;;3.88;;
39448;SDS011;25151;45.566;9.382;2023-06-24T06:40:31;5.70;;;3.35;;
39448;SDS011;25151;45.566;9.382;2023-06-24T06:43:36;4.28;;;3.72;;
39448;SDS011;25151;45.566;9.382;2023-06-24T06:46:41;4.70;;;3.13;;
39448;SDS011;25151;45.566;9.382;2023-06-24T06:49:47;5.72;;;3.55;;
39448;SDS011;25151;45.566;9.382;2023-06-24T06:52:51;5.07;;;3.47;;
39448;SDS011;25151;45.566;9.382;2023-06-24T06:56:00;6.93;;;4.35;;
39448;SDS011;25151;45.566;9.382;2023-06-24T06:59:08;5.30;;;3.85;;
39448;SDS011;25151;45.566;9.382;2023-06-24T07:02:16;9.68;;;3.53;;
39448;SDS011;25151;45.566;9.382;2023-06-24T07:05:19;12.80;;;4.40;;
39448;SDS011;25151;45.566;9.382;2023-06-24T07:08:23;12.50;;;4.50;;
39448;SDS011;25151;45.566;9.382;2023-06-24T07:11:27;8.30;;;4.10;;
39448;SDS011;25151;45.566;9.382;2023-06-24T07:14:30;14.90;;;4.63;;
39448;SDS011;25151;45.566;9.382;2023-06-24T07:17:35;7.07;;;3.72;;
39448;SDS011;25151;45.566;9.382;2023-06-24T07:20:39;8.05;;;3.92;;
39448;SDS011;25151;45.566;9.382;2023-06-24T07:23:44;9.20;;;4.47;;
39448;SDS011;25151;45.566;9.382;2023-06-24T07:26:50;9.45;;;3.40;;
39448;SDS011;25151;45.566;9.382;2023-06-24T07:29:53;5.82;;;3.80;;
39448;SDS011;25151;45.566;9.382;2023-06-24T07:32:57;6.15;;;3.25;;
39448;SDS011;25151;45.566;9.382;2023-06-24T07:36:06;6.75;;;4.20;;
39448;SDS011;25151;45.566;9.382;2023-06-24T07:39:14;6.68;;;3.75;;
39448;SDS011;25151;45.566;9.382;2023-06-24T07:42:20;7.28;;;3.60;;
39448;SDS011;25151;45.566;9.382;2023-06-24T07:45:22;6.85;;;3.58;;
39448;SDS011;25151;45.566;9.382;2023-06-24T07:48:26;5.22;;;3.97;;
39448;SDS011;25151;45.566;9.382;2023-06-24T07:51:29;6.35;;;2.85;;
39448;SDS011;25151;45.566;9.382;2023-06-24T07:54:38;5.18;;;3.40;;
39448;SDS011;25151;45.566;9.382;2023-06-24T07:57:47;6.25;;;3.50;;
39448;SDS011;25151;45.566;9.382;2023-06-24T08:00:52;5.88;;;3.55;;
39448;SDS011;25151;45.566;9.382;2023-06-24T08:03:56;10.07;;;3.75;;
39448;SDS011;25151;45.566;9.382;2023-06-24T08:07:02;6.00;;;3.17;;
39448;SDS011;25151;45.566;9.382;2023-06-24T08:10:09;9.48;;;3.58;;
39448;SDS011;25151;45.566;9.382;2023-06-24T08:13:18;5.80;;;3.40;;
39448;SDS011;25151;45.566;9.382;2023-06-24T08:16:21;5.32;;;3.78;;
39448;SDS011;25151;45.566;9.382;2023-06-24T08:19:24;5.03;;;3.00;;
39448;SDS011;25151;45.566;9.382;2023-06-24T08:22:28;4.50;;;3.10;;
39448;SDS011;25151;45.566;9.382;2023-06-24T08:25:31;3.72;;;2.88;;
39448;SDS011;25151;45.566;9.382;2023-06-24T08:28:37;8.85;;;3.30;;
39448;SDS011;25151;45.566;9.382;2023-06-24T08:31:40;5.45;;;2.92;;
39448;SDS011;25151;45.566;9.382;2023-06-24T08:34:44;4.72;;;2.80;;
39448;SDS011;25151;45.566;9.382;2023-06-24T08:37:48;5.60;;;3.40;;
39448;SDS011;25151;45.566;9.382;2023-06-24T08:40:52;7.88;;;3.63;;
39448;SDS011;25151;45.566;9.382;2023-06-24T08:43:57;6.03;;;3.38;;
39448;SDS011;25151;45.566;9.382;2023-06-24T08:47:00;5.47;;;3.10;;
39448;SDS011;25151;45.566;9.382;2023-06-24T08:50:03;4.85;;;3.20;;
39448;SDS011;25151;45.566;9.382;2023-06-24T08:53:10;6.72;;;3.30;;
39448;SDS011;25151;45.566;9.382;2023-06-24T08:56:15;5.03;;;3.00;;
39448;SDS011;25151;45.566;9.382;2023-06-24T08:59:20;4.78;;;3.03;;
39448;SDS011;25151;45.566;9.382;2023-06-24T09:02:23;4.30;;;3.13;;
39448;SDS011;25151;45.566;9.382;2023-06-24T09:05:27;6.07;;;3.30;;
39448;SDS011;25151;45.566;9.382;2023-06-24T09:08:31;6.70;;;3.65;;
39448;SDS011;25151;45.566;9.382;2023-06-24T09:11:40;5.40;;;3.08;;
39448;SDS011;25151;45.566;9.382;2023-06-24T09:14:49;10.02;;;2.78;;
39448;SDS011;25151;45.566;9.382;2023-06-24T09:17:52;8.13;;;3.10;;
39448;SDS011;25151;45.566;9.382;2023-06-24T09:20:56;8.30;;;2.70;;
39448;SDS011;25151;45.566;9.382;2023-06-24T09:24:03;4.82;;;2.83;;
39448;SDS011;25151;45.566;9.382;2023-06-24T09:27:08;4.00;;;2.72;;
39448;SDS011;25151;45.566;9.382;2023-06-24T09:30:19;5.15;;;2.95;;
39448;SDS011;25151;45.566;9.382;2023-06-24T09:33:24;6.20;;;3.30;;
39448;SDS011;25151;45.566;9.382;2023-06-24T09:36:28;5.07;;;3.05;;
39448;SDS011;25151;45.566;9.382;2023-06-24T09:39:35;5.97;;;2.88;;
39448;SDS011;25151;45.566;9.382;2023-06-24T09:42:47;5.13;;;3.00;;
39448;SDS011;25151;45.566;9.382;2023-06-24T09:45:54;6.65;;;3.10;;
39448;SDS011;25151;45.566;9.382;2023-06-24T09:48:59;7.82;;;2.92;;
39448;SDS011;25151;45.566;9.382;2023-06-24T09:52:06;5.07;;;2.72;;
39448;SDS011;25151;45.566;9.382;2023-06-24T09:55:12;4.88;;;3.05;;
39448;SDS011;25151;45.566;9.382;2023-06-24T09:58:17;8.40;;;3.00;;
39448;SDS011;25151;45.566;9.382;2023-06-24T10:01:24;6.30;;;2.78;;
39448;SDS011;25151;45.566;9.382;2023-06-24T10:04:29;7.53;;;3.78;;
39448;SDS011;25151;45.566;9.382;2023-06-24T10:07:34;8.05;;;2.70;;
39448;SDS011;25151;45.566;9.382;2023-06-24T10:10:39;10.02;;;2.95;;
39448;SDS011;25151;45.566;9.382;2023-06-24T10:13:43;4.45;;;2.70;;
39448;SDS011;25151;45.566;9.382;2023-06-24T10:16:49;6.72;;;2.45;;
39448;SDS011;25151;45.566;9.382;2023-06-24T10:19:53;5.32;;;2.95;;
39448;SDS011;25151;45.566;9.382;2023-06-24T10:22:57;4.43;;;2.90;;
39448;SDS011;25151;45.566;9.382;2023-06-24T10:26:01;4.28;;;2.90;;
39448;SDS011;25151;45.566;9.382;2023-06-24T10:29:09;4.97;;;2.72;;
39448;SDS011;25151;45.566;9.382;2023-06-24T10:32:22;5.45;;;2.65;;
39448;SDS011;25151;45.566;9.382;2023-06-24T10:35:26;3.90;;;2.90;;
39448;SDS011;25151;45.566;9.382;2023-06-24T10:38:32;5.25;;;2.95;;
39448;SDS011;25151;45.566;9.382;2023-06-24T10:41:39;8.90;;;3.22;;
39448;SDS011;25151;45.566;9.382;2023-06-24T10:44:47;9.57;;;2.80;;
39448;SDS011;25151;45.566;9.382;2023-06-24T10:47:53;5.20;;;2.88;;
39448;SDS011;25151;45.566;9.382;2023-06-24T10:51:00;6.88;;;2.97;;
39448;SDS011;25151;45.566;9.382;2023-06-24T10:54:04;3.28;;;2.30;;
39448;SDS011;25151;45.566;9.382;2023-06-24T10:57:11;4.78;;;2.28;;
39448;SDS011;25151;45.566;9.382;2023-06-24T11:00:16;5.20;;;2.33;;
39448;SDS011;25151;45.566;9.382;2023-06-24T11:03:21;5.70;;;2.22;;
39448;SDS011;25151;45.566;9.382;2023-06-24T11:06:25;6.22;;;2.30;;
39448;SDS011;25151;45.566;9.382;2023-06-24T11:09:28;2.75;;;2.30;;
39448;SDS011;25151;45.566;9.382;2023-06-24T11:12:33;9.05;;;2.58;;
39448;SDS011;25151;45.566;9.382;2023-06-24T11:15:39;5.65;;;2.20;;
39448;SDS011;25151;45.566;9.382;2023-06-24T11:18:45;7.10;;;3.13;;
39448;SDS011;25151;45.566;9.382;2023-06-24T11:21:48;6.40;;;2.60;;
39448;SDS011;25151;45.566;9.382;2023-06-24T11:24:52;6.78;;;2.55;;
39448;SDS011;25151;45.566;9.382;2023-06-24T11:27:57;4.88;;;2.45;;
39448;SDS011;25151;45.566;9.382;2023-06-24T11:31:06;6.68;;;2.80;;
39448;SDS011;25151;45.566;9.382;2023-06-24T11:34:15;5.80;;;2.55;;
39448;SDS011;25151;45.566;9.382;2023-06-24T11:37:20;6.30;;;2.63;;
39448;SDS011;25151;45.566;9.382;2023-06-24T11:40:34;3.13;;;2.10;;
39448;SDS011;25151;45.566;9.382;2023-06-24T11:43:37;7.32;;;2.67;;
39448;SDS011;25151;45.566;9.382;2023-06-24T11:46:47;8.65;;;3.22;;
39448;SDS011;25151;45.566;9.382;2023-06-24T11:49:55;6.45;;;3.03;;
39448;SDS011;25151;45.566;9.382;2023-06-24T11:52:59;6.50;;;3.15;;
39448;SDS011;25151;45.566;9.382;2023-06-24T11:56:03;4.88;;;2.38;;
39448;SDS011;25151;45.566;9.382;2023-06-24T11:59:07;6.93;;;2.35;;
39448;SDS011;25151;45.566;9.382;2023-06-24T12:02:19;8.48;;;2.83;;
39448;SDS011;25151;45.566;9.382;2023-06-24T12:05:25;6.82;;;2.58;;
39448;SDS011;25151;45.566;9.382;2023-06-24T12:08:30;3.20;;;2.10;;
39448;SDS011;25151;45.566;9.382;2023-06-24T12:11:40;7.53;;;2.65;;
39448;SDS011;25151;45.566;9.382;2023-06-24T12:14:44;8.70;;;2.58;;
39448;SDS011;25151;45.566;9.382;2023-06-24T12:17:50;3.85;;;2.70;;
39448;SDS011;25151;45.566;9.382;2023-06-24T12:20:56;3.70;;;2.72;;
39448;SDS011;25151;45.566;9.382;2023-06-24T12:24:02;4.45;;;2.20;;
39448;SDS011;25151;45.566;9.382;2023-06-24T12:27:07;3.95;;;2.70;;
39448;SDS011;25151;45.566;9.382;2023-06-24T12:30:11;7.30;;;2.70;;
39448;SDS011;25151;45.566;9.382;2023-06-24T12:33:16;5.88;;;2.72;;
39448;SDS011;25151;45.566;9.382;2023-06-24T12:36:25;4.18;;;2.30;;
39448;SDS011;25151;45.566;9.382;2023-06-24T12:39:28;4.80;;;2.05;;
39448;SDS011;25151;45.566;9.382;2023-06-24T12:42:33;5.20;;;2.28;;
39448;SDS011;25151;45.566;9.382;2023-06-24T12:45:37;6.95;;;2.55;;
39448;SDS011;25151;45.566;9.382;2023-06-24T12:48:43;6.10;;;2.38;;
39448;SDS011;25151;45.566;9.382;2023-06-24T12:51:49;5.20;;;2.38;;
39448;SDS011;25151;45.566;9.382;2023-06-24T12:54:53;7.57;;;2.38;;
39448;SDS011;25151;45.566;9.382;2023-06-24T12:57:57;3.97;;;2.10;;
39448;SDS011;25151;45.566;9.382;2023-06-24T13:01:01;6.88;;;2.47;;
39448;SDS011;25151;45.566;9.382;2023-06-24T13:04:06;3.45;;;2.22;;
39448;SDS011;25151;45.566;9.382;2023-06-24T13:07:12;5.28;;;2.67;;
39448;SDS011;25151;45.566;9.382;2023-06-24T13:10:15;4.97;;;2.60;;
39448;SDS011;25151;45.566;9.382;2023-06-24T13:13:18;4.95;;;2.63;;
39448;SDS011;25151;45.566;9.382;2023-06-24T13:16:21;4.40;;;2.40;;
39448;SDS011;25151;45.566;9.382;2023-06-24T13:19:24;4.18;;;2.35;;
39448;SDS011;25151;45.566;9.382;2023-06-24T13:22:30;3.65;;;2.65;;
39448;SDS011;25151;45.566;9.382;2023-06-24T13:25:36;4.88;;;2.60;;
39448;SDS011;25151;45.566;9.382;2023-06-24T13:28:41;3.42;;;2.10;;
39448;SDS011;25151;45.566;9.382;2023-06-24T13:31:45;4.38;;;2.25;;
39448;SDS011;25151;45.566;9.382;2023-06-24T13:34:49;3.67;;;2.33;;
39448;SDS011;25151;45.566;9.382;2023-06-24T13:37:56;6.30;;;2.70;;
39448;SDS011;25151;45.566;9.382;2023-06-24T13:41:00;7.07;;;2.58;;
39448;SDS011;25151;45.566;9.382;2023-06-24T13:44:04;4.85;;;2.55;;
39448;SDS011;25151;45.566;9.382;2023-06-24T13:47:09;6.68;;;2.40;;
39448;SDS011;25151;45.566;9.382;2023-06-24T13:50:17;4.32;;;2.20;;
39448;SDS011;25151;45.566;9.382;2023-06-24T13:53:22;2.70;;;2.00;;
39448;SDS011;25151;45.566;9.382;2023-06-24T13:56:25;5.45;;;2.20;;
39448;SDS011;25151;45.566;9.382;2023-06-24T13:59:31;4.07;;;2.50;;
39448;SDS011;25151;45.566;9.382;2023-06-24T14:02:34;5.28;;;2.45;;
39448;SDS011;25151;45.566;9.382;2023-06-24T14:05:38;6.22;;;2.13;;
39448;SDS011;25151;45.566;9.382;2023-06-24T14:08:46;2.60;;;1.92;;
39448;SDS011;25151;45.566;9.382;2023-06-24T14:11:49;4.13;;;2.00;;
39448;SDS011;25151;45.566;9.382;2023-06-24T14:14:53;2.80;;;2.00;;
39448;SDS011;25151;45.566;9.382;2023-06-24T14:17:58;5.93;;;2.58;;
39448;SDS011;25151;45.566;9.382;2023-06-24T14:21:03;3.38;;;2.28;;
39448;SDS011;25151;45.566;9.382;2023-06-24T14:24:12;3.72;;;2.30;;
39448;SDS011;25151;45.566;9.382;2023-06-24T14:27:15;3.88;;;2.65;;
39448;SDS011;25151;45.566;9.382;2023-06-24T14:30:19;6.10;;;2.35;;
39448;SDS011;25151;45.566;9.382;2023-06-24T14:33:24;4.43;;;2.28;;
39448;SDS011;25151;45.566;9.382;2023-06-24T14:36:30;2.47;;;2.25;;
39448;SDS011;25151;45.566;9.382;2023-06-24T14:39:35;4.70;;;2.45;;
39448;SDS011;25151;45.566;9.382;2023-06-24T14:42:39;4.72;;;2.58;;
39448;SDS011;25151;45.566;9.382;2023-06-24T14:45:44;4.60;;;2.42;;
39448;SDS011;25151;45.566;9.382;2023-06-24T14:48:47;4.50;;;2.28;;
39448;SDS011;25151;45.566;9.382;2023-06-24T14:51:52;3.40;;;2.50;;
39448;SDS011;25151;45.566;9.382;2023-06-24T14:54:58;4.35;;;2.60;;
39448;SDS011;25151;45.566;9.382;2023-06-24T14:58:01;3.65;;;2.00;;
39448;SDS011;25151;45.566;9.382;2023-06-24T15:01:06;3.42;;;2.20;;
39448;SDS011;25151;45.566;9.382;2023-06-24T15:04:10;3.13;;;2.10;;
39448;SDS011;25151;45.566;9.382;2023-06-24T15:07:14;3.97;;;2.03;;
39448;SDS011;25151;45.566;9.382;2023-06-24T15:10:21;4.97;;;2.30;;
39448;SDS011;25151;45.566;9.382;2023-06-24T15:13:25;4.32;;;2.10;;
39448;SDS011;25151;45.566;9.382;2023-06-24T15:16:29;3.85;;;2.55;;
39448;SDS011;25151;45.566;9.382;2023-06-24T15:19:33;4.72;;;2.10;;
39448;SDS011;25151;45.566;9.382;2023-06-24T15:22:37;3.63;;;2.42;;
39448;SDS011;25151;45.566;9.382;2023-06-24T15:25:46;2.53;;;2.05;;
39448;SDS011;25151;45.566;9.382;2023-06-24T15:28:51;5.32;;;2.53;;
39448;SDS011;25151;45.566;9.382;2023-06-24T15:31:55;4.22;;;2.22;;
39448;SDS011;25151;45.566;9.382;2023-06-24T15:35:01;5.65;;;2.47;;
39448;SDS011;25151;45.566;9.382;2023-06-24T15:38:05;2.55;;;1.95;;
39448;SDS011;25151;45.566;9.382;2023-06-24T15:41:16;5.22;;;2.25;;
39448;SDS011;25151;45.566;9.382;2023-06-24T15:44:19;6.47;;;2.65;;
39448;SDS011;25151;45.566;9.382;2023-06-24T15:47:23;5.72;;;2.58;;
39448;SDS011;25151;45.566;9.382;2023-06-24T15:50:28;7.68;;;2.65;;
39448;SDS011;25151;45.566;9.382;2023-06-24T15:53:32;10.23;;;2.60;;
39448;SDS011;25151;45.566;9.382;2023-06-24T15:56:38;6.75;;;2.35;;
39448;SDS011;25151;45.566;9.382;2023-06-24T15:59:42;10.00;;;3.20;;
39448;SDS011;25151;45.566;9.382;2023-06-24T16:02:46;4.25;;;2.35;;
39448;SDS011;25151;45.566;9.382;2023-06-24T16:05:49;5.72;;;3.08;;
39448;SDS011;25151;45.566;9.382;2023-06-24T16:08:53;3.05;;;2.25;;
39448;SDS011;25151;45.566;9.382;2023-06-24T16:11:59;5.72;;;2.53;;
39448;SDS011;25151;45.566;9.382;2023-06-24T16:15:03;7.05;;;2.25;;
39448;SDS011;25151;45.566;9.382;2023-06-24T16:18:06;4.43;;;2.40;;
39448;SDS011;25151;45.566;9.382;2023-06-24T16:21:11;7.00;;;2.88;;
39448;SDS011;25151;45.566;9.382;2023-06-24T16:24:15;4.45;;;2.50;;
39448;SDS011;25151;45.566;9.382;2023-06-24T16:27:21;4.15;;;2.40;;
39448;SDS011;25151;45.566;9.382;2023-06-24T16:30:24;4.25;;;2.22;;
39448;SDS011;25151;45.566;9.382;2023-06-24T16:33:28;4.25;;;2.15;;
39448;SDS011;25151;45.566;9.382;2023-06-24T16:36:31;3.83;;;2.45;;
39448;SDS011;25151;45.566;9.382;2023-06-24T16:39:35;4.70;;;2.38;;
39448;SDS011;25151;45.566;9.382;2023-06-24T16:42:42;5.43;;;2.50;;
39448;SDS011;25151;45.566;9.382;2023-06-24T16:45:46;3.80;;;2.33;;
39448;SDS011;25151;45.566;9.382;2023-06-24T16:48:49;4.25;;;2.70;;
39448;SDS011;25151;45.566;9.382;2023-06-24T16:51:53;2.70;;;2.20;;
39448;SDS011;25151;45.566;9.382;2023-06-24T16:54:56;4.20;;;2.42;;
39448;SDS011;25151;45.566;9.382;2023-06-24T16:58:01;2.72;;;2.00;;
39448;SDS011;25151;45.566;9.382;2023-06-24T17:01:04;4.45;;;2.30;;
39448;SDS011;25151;45.566;9.382;2023-06-24T17:04:08;5.15;;;2.58;;
39448;SDS011;25151;45.566;9.382;2023-06-24T17:07:13;3.78;;;2.22;;
39448;SDS011;25151;45.566;9.382;2023-06-24T17:10:16;3.55;;;1.92;;
39448;SDS011;25151;45.566;9.382;2023-06-24T17:13:22;2.83;;;2.17;;
39448;SDS011;25151;45.566;9.382;2023-06-24T17:16:25;3.35;;;2.35;;
39448;SDS011;25151;45.566;9.382;2023-06-24T17:19:27;5.05;;;2.30;;
39448;SDS011;25151;45.566;9.382;2023-06-24T17:22:29;4.85;;;2.42;;
39448;SDS011;25151;45.566;9.382;2023-06-24T17:25:31;3.53;;;2.47;;
39448;SDS011;25151;45.566;9.382;2023-06-24T17:28:35;4.25;;;2.20;;
39448;SDS011;25151;45.566;9.382;2023-06-24T17:31:37;3.03;;;2.13;;
39448;SDS011;25151;45.566;9.382;2023-06-24T17:34:40;4.65;;;2.40;;
39448;SDS011;25151;45.566;9.382;2023-06-24T17:37:44;6.97;;;2.38;;
39448;SDS011;25151;45.566;9.382;2023-06-24T17:40:48;7.50;;;2.33;;
39448;SDS011;25151;45.566;9.382;2023-06-24T17:43:54;10.55;;;2.38;;
39448;SDS011;25151;45.566;9.382;2023-06-24T17:46:57;6.05;;;2.35;;
39448;SDS011;25151;45.566;9.382;2023-06-24T17:50:02;5.18;;;2.95;;
39448;SDS011;25151;45.566;9.382;2023-06-24T17:53:10;4.03;;;2.10;;
39448;SDS011;25151;45.566;9.382;2023-06-24T17:56:15;5.32;;;2.00;;
39448;SDS011;25151;45.566;9.382;2023-06-24T17:59:25;4.95;;;2.58;;
39448;SDS011;25151;45.566;9.382;2023-06-24T18:02:30;4.47;;;2.20;;
39448;SDS011;25151;45.566;9.382;2023-06-24T18:05:34;5.38;;;2.40;;
39448;SDS011;25151;45.566;9.382;2023-06-24T18:08:38;6.00;;;2.08;;
39448;SDS011;25151;45.566;9.382;2023-06-24T18:11:42;3.10;;;1.83;;
39448;SDS011;25151;45.566;9.382;2023-06-24T18:14:46;7.63;;;2.38;;
39448;SDS011;25151;45.566;9.382;2023-06-24T18:17:49;8.10;;;2.38;;
39448;SDS011;25151;45.566;9.382;2023-06-24T18:20:53;6.18;;;2.10;;
39448;SDS011;25151;45.566;9.382;2023-06-24T18:23:59;5.82;;;2.22;;
39448;SDS011;25151;45.566;9.382;2023-06-24T18:27:01;3.72;;;2.05;;
39448;SDS011;25151;45.566;9.382;2023-06-24T18:30:08;4.97;;;2.17;;
39448;SDS011;25151;45.566;9.382;2023-06-24T18:33:12;2.85;;;2.17;;
39448;SDS011;25151;45.566;9.382;2023-06-24T18:36:16;5.50;;;2.05;;